sensor_id;sensor_type;location;lat;lon;timestamp;P1;durP1;ratioP1;P2;durP2;ratioP2
7308;SDS011;3695;53.330;9.876;2023-02-14T00:00:18;66.80;;;27.70;;
7308;SDS011;3695;53.330;9.876;2023-02-14T00:02:46;64.60;;;27.37;;
7308;SDS011;3695;53.330;9.876;2023-02-14T00:05:12;63.23;;;28.77;;
7308;SDS011;3695;53.330;9.876;2023-02-14T00:07:39;63.53;;;27.33;;
7308;SDS011;3695;53.330;9.876;2023-02-14T00:10:06;63.37;;;28.47;;
7308;SDS011;3695;53.330;9.876;2023-02-14T00:12:33;61.33;;;29.20;;
7308;SDS011;3695;53.330;9.876;2023-02-14T00:15:01;63.13;;;27.90;;
7308;SDS011;3695;53.330;9.876;2023-02-14T00:17:45;59.23;;;26.30;;
7308;SDS011;3695;53.330;9.876;2023-02-14T00:20:12;68.17;;;27.00;;
7308;SDS011;3695;53.330;9.876;2023-02-14T00:22:38;63.87;;;27.07;;
7308;SDS011;3695;53.330;9.876;2023-02-14T00:25:05;62.70;;;27.00;;
7308;SDS011;3695;53.330;9.876;2023-02-14T00:27:32;63.10;;;27.07;;
7308;SDS011;3695;53.330;9.876;2023-02-14T00:29:58;64.23;;;27.40;;
7308;SDS011;3695;53.330;9.876;2023-02-14T00:32:28;62.10;;;27.73;;
7308;SDS011;3695;53.330;9.876;2023-02-14T00:34:55;66.90;;;28.60;;
7308;SDS011;3695;53.330;9.876;2023-02-14T00:37:21;63.73;;;27.97;;
7308;SDS011;3695;53.330;9.876;2023-02-14T00:39:48;57.53;;;27.07;;
7308;SDS011;3695;53.330;9.876;2023-02-14T00:42:15;66.17;;;28.63;;
7308;SDS011;3695;53.330;9.876;2023-02-14T00:44:41;69.60;;;28.17;;
7308;SDS011;3695;53.330;9.876;2023-02-14T00:47:08;64.70;;;26.43;;
7308;SDS011;3695;53.330;9.876;2023-02-14T00:49:35;61.23;;;26.63;;
7308;SDS011;3695;53.330;9.876;2023-02-14T00:52:02;63.77;;;28.17;;
7308;SDS011;3695;53.330;9.876;2023-02-14T00:54:28;58.70;;;25.90;;
7308;SDS011;3695;53.330;9.876;2023-02-14T00:56:55;59.17;;;26.00;;
7308;SDS011;3695;53.330;9.876;2023-02-14T00:59:21;59.57;;;26.93;;
7308;SDS011;3695;53.330;9.876;2023-02-14T01:01:47;65.23;;;27.37;;
7308;SDS011;3695;53.330;9.876;2023-02-14T01:04:14;63.80;;;27.93;;
7308;SDS011;3695;53.330;9.876;2023-02-14T01:06:42;56.80;;;24.87;;
7308;SDS011;3695;53.330;9.876;2023-02-14T01:09:09;59.73;;;26.37;;
7308;SDS011;3695;53.330;9.876;2023-02-14T01:11:36;66.97;;;28.10;;
7308;SDS011;3695;53.330;9.876;2023-02-14T01:14:03;61.30;;;26.60;;
7308;SDS011;3695;53.330;9.876;2023-02-14T01:16:30;65.10;;;27.87;;
7308;SDS011;3695;53.330;9.876;2023-02-14T01:18:57;64.10;;;25.87;;
7308;SDS011;3695;53.330;9.876;2023-02-14T01:21:25;63.53;;;27.80;;
7308;SDS011;3695;53.330;9.876;2023-02-14T01:23:54;57.97;;;25.53;;
7308;SDS011;3695;53.330;9.876;2023-02-14T01:26:23;58.87;;;25.40;;
7308;SDS011;3695;53.330;9.876;2023-02-14T01:28:50;58.07;;;27.13;;
7308;SDS011;3695;53.330;9.876;2023-02-14T01:31:18;60.43;;;25.93;;
7308;SDS011;3695;53.330;9.876;2023-02-14T01:33:46;63.37;;;29.00;;
7308;SDS011;3695;53.330;9.876;2023-02-14T01:36:13;60.40;;;27.43;;
7308;SDS011;3695;53.330;9.876;2023-02-14T01:38:41;69.37;;;27.87;;
7308;SDS011;3695;53.330;9.876;2023-02-14T01:41:08;61.97;;;26.80;;
7308;SDS011;3695;53.330;9.876;2023-02-14T01:43:48;58.30;;;26.47;;
7308;SDS011;3695;53.330;9.876;2023-02-14T01:46:16;65.90;;;27.83;;
7308;SDS011;3695;53.330;9.876;2023-02-14T01:48:42;61.50;;;26.07;;
7308;SDS011;3695;53.330;9.876;2023-02-14T01:51:09;57.67;;;25.93;;
7308;SDS011;3695;53.330;9.876;2023-02-14T01:53:35;63.77;;;25.47;;
7308;SDS011;3695;53.330;9.876;2023-02-14T01:56:03;61.20;;;27.13;;
7308;SDS011;3695;53.330;9.876;2023-02-14T01:58:34;66.50;;;27.83;;
7308;SDS011;3695;53.330;9.876;2023-02-14T02:01:08;60.73;;;27.50;;
7308;SDS011;3695;53.330;9.876;2023-02-14T02:03:37;69.30;;;28.30;;
7308;SDS011;3695;53.330;9.876;2023-02-14T02:06:08;62.37;;;26.80;;
7308;SDS011;3695;53.330;9.876;2023-02-14T02:08:39;65.00;;;26.77;;
7308;SDS011;3695;53.330;9.876;2023-02-14T02:11:09;64.57;;;27.50;;
7308;SDS011;3695;53.330;9.876;2023-02-14T02:13:37;61.03;;;27.40;;
7308;SDS011;3695;53.330;9.876;2023-02-14T02:16:07;65.93;;;27.60;;
7308;SDS011;3695;53.330;9.876;2023-02-14T02:18:48;73.40;;;33.77;;
7308;SDS011;3695;53.330;9.876;2023-02-14T02:21:35;64.80;;;28.13;;
7308;SDS011;3695;53.330;9.876;2023-02-14T02:24:27;63.13;;;28.92;;
7308;SDS011;3695;53.330;9.876;2023-02-14T02:27:05;69.37;;;29.03;;
7308;SDS011;3695;53.330;9.876;2023-02-14T02:36:15;61.27;;;26.37;;
7308;SDS011;3695;53.330;9.876;2023-02-14T02:38:54;59.53;;;27.27;;
7308;SDS011;3695;53.330;9.876;2023-02-14T02:41:32;63.97;;;25.67;;
7308;SDS011;3695;53.330;9.876;2023-02-14T02:44:10;60.43;;;24.77;;
7308;SDS011;3695;53.330;9.876;2023-02-14T02:46:43;65.97;;;28.07;;
7308;SDS011;3695;53.330;9.876;2023-02-14T02:49:20;67.97;;;27.43;;
7308;SDS011;3695;53.330;9.876;2023-02-14T02:52:14;68.97;;;27.10;;
7308;SDS011;3695;53.330;9.876;2023-02-14T02:55:03;75.17;;;27.27;;
7308;SDS011;3695;53.330;9.876;2023-02-14T02:57:37;61.80;;;26.30;;
7308;SDS011;3695;53.330;9.876;2023-02-14T03:00:05;71.20;;;27.27;;
7308;SDS011;3695;53.330;9.876;2023-02-14T03:02:35;68.40;;;26.80;;
7308;SDS011;3695;53.330;9.876;2023-02-14T03:05:19;69.07;;;28.33;;
7308;SDS011;3695;53.330;9.876;2023-02-14T03:07:48;70.97;;;26.70;;
7308;SDS011;3695;53.330;9.876;2023-02-14T03:10:15;61.80;;;26.57;;
7308;SDS011;3695;53.330;9.876;2023-02-14T03:12:52;62.13;;;27.13;;
7308;SDS011;3695;53.330;9.876;2023-02-14T03:15:39;68.97;;;26.47;;
7308;SDS011;3695;53.330;9.876;2023-02-14T03:18:19;64.27;;;26.73;;
7308;SDS011;3695;53.330;9.876;2023-02-14T03:21:03;64.40;;;27.60;;
7308;SDS011;3695;53.330;9.876;2023-02-14T03:23:38;70.67;;;28.13;;
7308;SDS011;3695;53.330;9.876;2023-02-14T03:26:13;63.50;;;27.07;;
7308;SDS011;3695;53.330;9.876;2023-02-14T03:28:44;66.30;;;26.77;;
7308;SDS011;3695;53.330;9.876;2023-02-14T03:31:18;61.43;;;27.27;;
7308;SDS011;3695;53.330;9.876;2023-02-14T03:33:49;74.90;;;29.50;;
7308;SDS011;3695;53.330;9.876;2023-02-14T03:36:24;72.40;;;26.30;;
7308;SDS011;3695;53.330;9.876;2023-02-14T03:38:56;64.07;;;27.90;;
7308;SDS011;3695;53.330;9.876;2023-02-14T03:41:30;65.20;;;28.17;;
7308;SDS011;3695;53.330;9.876;2023-02-14T03:44:02;74.70;;;30.03;;
7308;SDS011;3695;53.330;9.876;2023-02-14T03:46:34;69.23;;;28.23;;
7308;SDS011;3695;53.330;9.876;2023-02-14T03:49:06;69.37;;;28.90;;
7308;SDS011;3695;53.330;9.876;2023-02-14T03:51:36;66.33;;;26.90;;
7308;SDS011;3695;53.330;9.876;2023-02-14T03:54:06;68.50;;;27.67;;
7308;SDS011;3695;53.330;9.876;2023-02-14T03:56:37;64.93;;;27.07;;
7308;SDS011;3695;53.330;9.876;2023-02-14T03:59:09;66.00;;;28.47;;
7308;SDS011;3695;53.330;9.876;2023-02-14T04:01:41;68.37;;;27.70;;
7308;SDS011;3695;53.330;9.876;2023-02-14T04:04:12;73.67;;;28.90;;
7308;SDS011;3695;53.330;9.876;2023-02-14T04:06:41;74.00;;;28.00;;
7308;SDS011;3695;53.330;9.876;2023-02-14T04:09:10;65.17;;;27.87;;
7308;SDS011;3695;53.330;9.876;2023-02-14T04:11:36;69.33;;;29.37;;
7308;SDS011;3695;53.330;9.876;2023-02-14T04:14:03;69.87;;;27.20;;
7308;SDS011;3695;53.330;9.876;2023-02-14T04:16:30;63.90;;;27.80;;
7308;SDS011;3695;53.330;9.876;2023-02-14T04:19:16;73.80;;;27.80;;
7308;SDS011;3695;53.330;9.876;2023-02-14T04:21:47;66.53;;;26.43;;
7308;SDS011;3695;53.330;9.876;2023-02-14T04:24:15;72.47;;;27.63;;
7308;SDS011;3695;53.330;9.876;2023-02-14T04:26:42;67.73;;;27.07;;
7308;SDS011;3695;53.330;9.876;2023-02-14T04:29:18;69.27;;;26.23;;
7308;SDS011;3695;53.330;9.876;2023-02-14T04:31:44;66.80;;;27.23;;
7308;SDS011;3695;53.330;9.876;2023-02-14T04:34:12;68.70;;;27.43;;
7308;SDS011;3695;53.330;9.876;2023-02-14T04:36:38;74.73;;;29.23;;
7308;SDS011;3695;53.330;9.876;2023-02-14T04:39:05;81.60;;;30.47;;
7308;SDS011;3695;53.330;9.876;2023-02-14T04:41:33;68.60;;;28.60;;
7308;SDS011;3695;53.330;9.876;2023-02-14T04:43:59;72.70;;;27.73;;
7308;SDS011;3695;53.330;9.876;2023-02-14T04:46:26;69.37;;;26.93;;
7308;SDS011;3695;53.330;9.876;2023-02-14T04:48:53;72.60;;;28.90;;
7308;SDS011;3695;53.330;9.876;2023-02-14T04:51:19;84.53;;;29.23;;
7308;SDS011;3695;53.330;9.876;2023-02-14T04:53:45;64.70;;;26.90;;
7308;SDS011;3695;53.330;9.876;2023-02-14T04:56:12;68.77;;;27.10;;
7308;SDS011;3695;53.330;9.876;2023-02-14T04:58:40;66.93;;;27.53;;
7308;SDS011;3695;53.330;9.876;2023-02-14T05:01:06;68.97;;;28.40;;
7308;SDS011;3695;53.330;9.876;2023-02-14T05:03:32;69.93;;;26.57;;
7308;SDS011;3695;53.330;9.876;2023-02-14T05:05:59;73.63;;;27.83;;
7308;SDS011;3695;53.330;9.876;2023-02-14T05:08:25;67.27;;;27.47;;
7308;SDS011;3695;53.330;9.876;2023-02-14T05:10:53;76.23;;;28.97;;
7308;SDS011;3695;53.330;9.876;2023-02-14T05:13:19;68.10;;;28.10;;
7308;SDS011;3695;53.330;9.876;2023-02-14T05:15:47;69.00;;;27.50;;
7308;SDS011;3695;53.330;9.876;2023-02-14T05:18:13;71.20;;;29.47;;
7308;SDS011;3695;53.330;9.876;2023-02-14T05:20:40;76.20;;;28.77;;
7308;SDS011;3695;53.330;9.876;2023-02-14T05:23:06;67.47;;;27.93;;
7308;SDS011;3695;53.330;9.876;2023-02-14T05:25:37;67.83;;;27.03;;
7308;SDS011;3695;53.330;9.876;2023-02-14T05:28:04;72.10;;;27.97;;
7308;SDS011;3695;53.330;9.876;2023-02-14T05:30:30;72.93;;;28.30;;
7308;SDS011;3695;53.330;9.876;2023-02-14T05:32:59;76.43;;;27.63;;
7308;SDS011;3695;53.330;9.876;2023-02-14T05:35:26;74.03;;;27.23;;
7308;SDS011;3695;53.330;9.876;2023-02-14T05:37:52;66.77;;;27.17;;
7308;SDS011;3695;53.330;9.876;2023-02-14T05:40:19;68.67;;;27.63;;
7308;SDS011;3695;53.330;9.876;2023-02-14T05:42:45;70.27;;;27.03;;
7308;SDS011;3695;53.330;9.876;2023-02-14T05:45:13;60.30;;;25.93;;
7308;SDS011;3695;53.330;9.876;2023-02-14T05:47:39;68.00;;;26.20;;
7308;SDS011;3695;53.330;9.876;2023-02-14T05:50:08;60.60;;;24.30;;
7308;SDS011;3695;53.330;9.876;2023-02-14T05:52:35;62.13;;;27.13;;
7308;SDS011;3695;53.330;9.876;2023-02-14T05:55:02;62.17;;;26.13;;
7308;SDS011;3695;53.330;9.876;2023-02-14T05:57:29;64.77;;;26.03;;
7308;SDS011;3695;53.330;9.876;2023-02-14T05:59:56;61.57;;;24.80;;
7308;SDS011;3695;53.330;9.876;2023-02-14T06:02:23;60.40;;;25.00;;
7308;SDS011;3695;53.330;9.876;2023-02-14T06:04:49;64.57;;;24.27;;
7308;SDS011;3695;53.330;9.876;2023-02-14T06:07:17;57.27;;;23.93;;
7308;SDS011;3695;53.330;9.876;2023-02-14T06:09:44;63.43;;;24.70;;
7308;SDS011;3695;53.330;9.876;2023-02-14T06:12:10;60.87;;;24.83;;
7308;SDS011;3695;53.330;9.876;2023-02-14T06:14:37;60.17;;;25.17;;
7308;SDS011;3695;53.330;9.876;2023-02-14T06:17:05;63.53;;;24.97;;
7308;SDS011;3695;53.330;9.876;2023-02-14T06:19:31;57.07;;;23.97;;
7308;SDS011;3695;53.330;9.876;2023-02-14T06:21:58;60.00;;;25.40;;
7308;SDS011;3695;53.330;9.876;2023-02-14T06:24:25;67.50;;;26.93;;
7308;SDS011;3695;53.330;9.876;2023-02-14T06:26:52;58.70;;;25.40;;
7308;SDS011;3695;53.330;9.876;2023-02-14T06:29:19;62.73;;;25.13;;
7308;SDS011;3695;53.330;9.876;2023-02-14T06:31:45;66.33;;;26.70;;
7308;SDS011;3695;53.330;9.876;2023-02-14T06:34:11;63.23;;;25.27;;
7308;SDS011;3695;53.330;9.876;2023-02-14T06:36:38;59.60;;;25.27;;
7308;SDS011;3695;53.330;9.876;2023-02-14T06:39:04;67.50;;;29.30;;
7308;SDS011;3695;53.330;9.876;2023-02-14T06:41:32;58.93;;;26.80;;
7308;SDS011;3695;53.330;9.876;2023-02-14T06:43:58;67.07;;;27.97;;
7308;SDS011;3695;53.330;9.876;2023-02-14T06:46:25;70.57;;;28.83;;
7308;SDS011;3695;53.330;9.876;2023-02-14T06:48:51;60.90;;;26.97;;
7308;SDS011;3695;53.330;9.876;2023-02-14T06:51:18;65.47;;;26.87;;
7308;SDS011;3695;53.330;9.876;2023-02-14T06:53:44;58.93;;;25.53;;
7308;SDS011;3695;53.330;9.876;2023-02-14T06:56:11;60.27;;;25.37;;
7308;SDS011;3695;53.330;9.876;2023-02-14T06:58:38;60.20;;;25.10;;
7308;SDS011;3695;53.330;9.876;2023-02-14T07:01:05;61.27;;;24.80;;
7308;SDS011;3695;53.330;9.876;2023-02-14T07:03:31;57.57;;;24.97;;
7308;SDS011;3695;53.330;9.876;2023-02-14T07:05:58;63.00;;;26.10;;
7308;SDS011;3695;53.330;9.876;2023-02-14T07:08:24;61.03;;;24.97;;
7308;SDS011;3695;53.330;9.876;2023-02-14T07:10:53;65.33;;;24.80;;
7308;SDS011;3695;53.330;9.876;2023-02-14T07:13:20;62.57;;;24.67;;
7308;SDS011;3695;53.330;9.876;2023-02-14T07:15:48;56.80;;;24.90;;
7308;SDS011;3695;53.330;9.876;2023-02-14T07:18:15;62.43;;;25.10;;
7308;SDS011;3695;53.330;9.876;2023-02-14T07:20:41;60.50;;;25.07;;
7308;SDS011;3695;53.330;9.876;2023-02-14T07:23:08;56.33;;;24.47;;
7308;SDS011;3695;53.330;9.876;2023-02-14T07:25:35;60.07;;;26.43;;
7308;SDS011;3695;53.330;9.876;2023-02-14T07:28:02;66.73;;;28.37;;
7308;SDS011;3695;53.330;9.876;2023-02-14T07:30:28;86.07;;;36.27;;
7308;SDS011;3695;53.330;9.876;2023-02-14T07:32:57;76.20;;;31.53;;
7308;SDS011;3695;53.330;9.876;2023-02-14T07:35:23;64.37;;;25.97;;
7308;SDS011;3695;53.330;9.876;2023-02-14T07:37:50;62.27;;;25.77;;
7308;SDS011;3695;53.330;9.876;2023-02-14T07:40:17;66.90;;;25.93;;
7308;SDS011;3695;53.330;9.876;2023-02-14T07:42:44;60.10;;;25.20;;
7308;SDS011;3695;53.330;9.876;2023-02-14T07:45:16;58.33;;;24.13;;
7308;SDS011;3695;53.330;9.876;2023-02-14T07:47:43;64.90;;;26.87;;
7308;SDS011;3695;53.330;9.876;2023-02-14T07:50:11;59.83;;;25.70;;
7308;SDS011;3695;53.330;9.876;2023-02-14T07:52:37;60.63;;;25.13;;
7308;SDS011;3695;53.330;9.876;2023-02-14T07:55:04;67.00;;;25.10;;
7308;SDS011;3695;53.330;9.876;2023-02-14T07:57:31;67.17;;;27.00;;
7308;SDS011;3695;53.330;9.876;2023-02-14T07:59:57;62.57;;;24.30;;
7308;SDS011;3695;53.330;9.876;2023-02-14T08:02:24;67.77;;;26.93;;
7308;SDS011;3695;53.330;9.876;2023-02-14T08:04:50;65.43;;;25.37;;
7308;SDS011;3695;53.330;9.876;2023-02-14T08:07:18;62.17;;;25.63;;
7308;SDS011;3695;53.330;9.876;2023-02-14T08:09:44;63.73;;;26.27;;
7308;SDS011;3695;53.330;9.876;2023-02-14T08:12:11;64.63;;;25.83;;
7308;SDS011;3695;53.330;9.876;2023-02-14T08:14:55;67.97;;;25.83;;
7308;SDS011;3695;53.330;9.876;2023-02-14T08:17:42;52.07;;;23.37;;
7308;SDS011;3695;53.330;9.876;2023-02-14T08:20:09;54.97;;;24.37;;
7308;SDS011;3695;53.330;9.876;2023-02-14T08:22:38;54.63;;;23.27;;
7308;SDS011;3695;53.330;9.876;2023-02-14T08:25:05;58.00;;;23.90;;
7308;SDS011;3695;53.330;9.876;2023-02-14T08:27:31;192.77;;;85.07;;
7308;SDS011;3695;53.330;9.876;2023-02-14T08:29:58;59.40;;;27.30;;
7308;SDS011;3695;53.330;9.876;2023-02-14T08:32:24;60.53;;;27.53;;
7308;SDS011;3695;53.330;9.876;2023-02-14T08:34:51;56.63;;;25.43;;
7308;SDS011;3695;53.330;9.876;2023-02-14T08:37:17;52.97;;;25.77;;
7308;SDS011;3695;53.330;9.876;2023-02-14T08:39:45;57.37;;;24.83;;
7308;SDS011;3695;53.330;9.876;2023-02-14T08:42:11;49.83;;;24.23;;
7308;SDS011;3695;53.330;9.876;2023-02-14T08:44:38;58.10;;;24.30;;
7308;SDS011;3695;53.330;9.876;2023-02-14T08:47:04;50.67;;;23.53;;
7308;SDS011;3695;53.330;9.876;2023-02-14T08:49:31;52.27;;;23.17;;
7308;SDS011;3695;53.330;9.876;2023-02-14T08:51:57;51.07;;;23.93;;
7308;SDS011;3695;53.330;9.876;2023-02-14T08:54:23;48.57;;;23.13;;
7308;SDS011;3695;53.330;9.876;2023-02-14T08:56:51;44.67;;;21.03;;
7308;SDS011;3695;53.330;9.876;2023-02-14T08:59:18;43.33;;;21.47;;
7308;SDS011;3695;53.330;9.876;2023-02-14T09:01:44;45.27;;;20.87;;
7308;SDS011;3695;53.330;9.876;2023-02-14T09:04:11;46.10;;;22.50;;
7308;SDS011;3695;53.330;9.876;2023-02-14T09:06:38;43.73;;;21.43;;
7308;SDS011;3695;53.330;9.876;2023-02-14T09:09:04;43.53;;;21.13;;
7308;SDS011;3695;53.330;9.876;2023-02-14T09:11:31;42.00;;;20.33;;
7308;SDS011;3695;53.330;9.876;2023-02-14T09:14:00;38.20;;;19.20;;
7308;SDS011;3695;53.330;9.876;2023-02-14T09:16:26;41.37;;;20.80;;
7308;SDS011;3695;53.330;9.876;2023-02-14T09:18:53;95.57;;;47.57;;
7308;SDS011;3695;53.330;9.876;2023-02-14T09:21:21;40.03;;;21.03;;
7308;SDS011;3695;53.330;9.876;2023-02-14T09:23:49;78.00;;;41.40;;
7308;SDS011;3695;53.330;9.876;2023-02-14T09:26:17;43.67;;;22.00;;
7308;SDS011;3695;53.330;9.876;2023-02-14T09:28:44;45.90;;;20.40;;
7308;SDS011;3695;53.330;9.876;2023-02-14T09:31:13;38.40;;;20.07;;
7308;SDS011;3695;53.330;9.876;2023-02-14T09:33:40;37.57;;;19.93;;
7308;SDS011;3695;53.330;9.876;2023-02-14T09:36:26;39.00;;;19.83;;
7308;SDS011;3695;53.330;9.876;2023-02-14T09:39:10;41.57;;;20.57;;
7308;SDS011;3695;53.330;9.876;2023-02-14T09:41:48;41.27;;;19.60;;
7308;SDS011;3695;53.330;9.876;2023-02-14T09:44:26;43.73;;;20.17;;
7308;SDS011;3695;53.330;9.876;2023-02-14T09:46:58;39.87;;;19.87;;
7308;SDS011;3695;53.330;9.876;2023-02-14T09:49:30;41.97;;;20.83;;
7308;SDS011;3695;53.330;9.876;2023-02-14T09:52:00;39.93;;;19.17;;
7308;SDS011;3695;53.330;9.876;2023-02-14T09:54:28;38.37;;;20.03;;
7308;SDS011;3695;53.330;9.876;2023-02-14T09:56:58;36.70;;;18.23;;
7308;SDS011;3695;53.330;9.876;2023-02-14T09:59:30;37.07;;;18.33;;
7308;SDS011;3695;53.330;9.876;2023-02-14T10:02:17;34.63;;;18.50;;
7308;SDS011;3695;53.330;9.876;2023-02-14T10:04:56;33.43;;;17.37;;
7308;SDS011;3695;53.330;9.876;2023-02-14T10:07:33;32.27;;;16.77;;
7308;SDS011;3695;53.330;9.876;2023-02-14T10:10:07;31.37;;;16.97;;
7308;SDS011;3695;53.330;9.876;2023-02-14T10:12:41;33.03;;;16.67;;
7308;SDS011;3695;53.330;9.876;2023-02-14T10:15:12;32.20;;;17.40;;
7308;SDS011;3695;53.330;9.876;2023-02-14T10:17:45;32.77;;;16.60;;
7308;SDS011;3695;53.330;9.876;2023-02-14T10:20:17;31.97;;;15.87;;
7308;SDS011;3695;53.330;9.876;2023-02-14T10:22:50;29.27;;;16.43;;
7308;SDS011;3695;53.330;9.876;2023-02-14T10:25:23;30.53;;;16.10;;
7308;SDS011;3695;53.330;9.876;2023-02-14T10:27:54;31.87;;;16.53;;
7308;SDS011;3695;53.330;9.876;2023-02-14T10:30:23;29.67;;;16.00;;
7308;SDS011;3695;53.330;9.876;2023-02-14T10:32:55;27.20;;;15.00;;
7308;SDS011;3695;53.330;9.876;2023-02-14T10:35:30;29.37;;;15.13;;
7308;SDS011;3695;53.330;9.876;2023-02-14T10:38:08;32.43;;;17.43;;
7308;SDS011;3695;53.330;9.876;2023-02-14T10:40:53;36.73;;;19.30;;
7308;SDS011;3695;53.330;9.876;2023-02-14T10:43:31;27.03;;;13.70;;
7308;SDS011;3695;53.330;9.876;2023-02-14T10:46:05;24.40;;;13.43;;
7308;SDS011;3695;53.330;9.876;2023-02-14T10:48:45;25.17;;;13.33;;
7308;SDS011;3695;53.330;9.876;2023-02-14T10:51:23;23.10;;;12.80;;
7308;SDS011;3695;53.330;9.876;2023-02-14T10:53:59;24.43;;;13.87;;
7308;SDS011;3695;53.330;9.876;2023-02-14T10:56:37;25.10;;;13.67;;
7308;SDS011;3695;53.330;9.876;2023-02-14T10:59:10;23.73;;;13.37;;
7308;SDS011;3695;53.330;9.876;2023-02-14T11:01:46;26.30;;;14.63;;
7308;SDS011;3695;53.330;9.876;2023-02-14T11:04:15;23.77;;;13.67;;
7308;SDS011;3695;53.330;9.876;2023-02-14T11:06:43;25.83;;;14.90;;
7308;SDS011;3695;53.330;9.876;2023-02-14T11:09:13;23.50;;;13.07;;
7308;SDS011;3695;53.330;9.876;2023-02-14T11:11:40;23.40;;;13.43;;
7308;SDS011;3695;53.330;9.876;2023-02-14T11:14:23;24.53;;;13.10;;
7308;SDS011;3695;53.330;9.876;2023-02-14T11:16:54;25.80;;;14.10;;
7308;SDS011;3695;53.330;9.876;2023-02-14T11:19:25;60.93;;;32.70;;
7308;SDS011;3695;53.330;9.876;2023-02-14T11:21:53;28.07;;;14.37;;
7308;SDS011;3695;53.330;9.876;2023-02-14T11:24:25;65.50;;;24.57;;
7308;SDS011;3695;53.330;9.876;2023-02-14T11:26:54;28.37;;;14.13;;
7308;SDS011;3695;53.330;9.876;2023-02-14T11:29:25;24.83;;;14.13;;
7308;SDS011;3695;53.330;9.876;2023-02-14T11:31:54;23.50;;;14.10;;
7308;SDS011;3695;53.330;9.876;2023-02-14T11:34:23;22.03;;;13.03;;
7308;SDS011;3695;53.330;9.876;2023-02-14T11:37:00;26.37;;;13.83;;
7308;SDS011;3695;53.330;9.876;2023-02-14T11:39:28;24.37;;;13.30;;
7308;SDS011;3695;53.330;9.876;2023-02-14T11:41:57;25.23;;;12.90;;
7308;SDS011;3695;53.330;9.876;2023-02-14T11:44:26;24.33;;;13.33;;
7308;SDS011;3695;53.330;9.876;2023-02-14T11:46:55;23.87;;;12.63;;
7308;SDS011;3695;53.330;9.876;2023-02-14T11:49:23;22.30;;;13.23;;
7308;SDS011;3695;53.330;9.876;2023-02-14T11:51:54;24.73;;;13.67;;
7308;SDS011;3695;53.330;9.876;2023-02-14T11:54:25;23.23;;;13.17;;
7308;SDS011;3695;53.330;9.876;2023-02-14T11:56:55;24.80;;;13.93;;
7308;SDS011;3695;53.330;9.876;2023-02-14T11:59:30;22.80;;;13.00;;
7308;SDS011;3695;53.330;9.876;2023-02-14T12:02:02;24.20;;;13.27;;
7308;SDS011;3695;53.330;9.876;2023-02-14T12:04:40;24.10;;;13.27;;
7308;SDS011;3695;53.330;9.876;2023-02-14T12:07:13;24.67;;;13.77;;
7308;SDS011;3695;53.330;9.876;2023-02-14T12:09:42;23.47;;;12.87;;
7308;SDS011;3695;53.330;9.876;2023-02-14T12:12:15;23.20;;;13.37;;
7308;SDS011;3695;53.330;9.876;2023-02-14T12:14:43;23.33;;;13.23;;
7308;SDS011;3695;53.330;9.876;2023-02-14T12:17:13;27.67;;;14.50;;
7308;SDS011;3695;53.330;9.876;2023-02-14T12:19:58;24.47;;;14.23;;
7308;SDS011;3695;53.330;9.876;2023-02-14T12:22:30;60.87;;;31.30;;
7308;SDS011;3695;53.330;9.876;2023-02-14T12:25:04;27.80;;;17.03;;
7308;SDS011;3695;53.330;9.876;2023-02-14T12:27:36;55.40;;;29.90;;
7308;SDS011;3695;53.330;9.876;2023-02-14T12:30:13;29.00;;;16.27;;
7308;SDS011;3695;53.330;9.876;2023-02-14T12:32:43;29.50;;;17.63;;
7308;SDS011;3695;53.330;9.876;2023-02-14T12:35:14;29.73;;;15.30;;
7308;SDS011;3695;53.330;9.876;2023-02-14T12:37:47;26.37;;;15.17;;
7308;SDS011;3695;53.330;9.876;2023-02-14T12:40:23;24.00;;;15.43;;
7308;SDS011;3695;53.330;9.876;2023-02-14T12:43:00;26.40;;;14.97;;
7308;SDS011;3695;53.330;9.876;2023-02-14T12:45:43;27.63;;;15.90;;
7308;SDS011;3695;53.330;9.876;2023-02-14T12:48:25;28.50;;;15.20;;
7308;SDS011;3695;53.330;9.876;2023-02-14T12:51:03;28.70;;;15.30;;
7308;SDS011;3695;53.330;9.876;2023-02-14T12:53:43;29.50;;;16.03;;
7308;SDS011;3695;53.330;9.876;2023-02-14T12:56:17;26.43;;;15.03;;
7308;SDS011;3695;53.330;9.876;2023-02-14T12:58:55;26.67;;;15.63;;
7308;SDS011;3695;53.330;9.876;2023-02-14T13:01:33;27.50;;;15.50;;
7308;SDS011;3695;53.330;9.876;2023-02-14T13:04:19;25.03;;;13.67;;
7308;SDS011;3695;53.330;9.876;2023-02-14T13:06:58;23.93;;;13.83;;
7308;SDS011;3695;53.330;9.876;2023-02-14T13:09:35;23.53;;;13.90;;
7308;SDS011;3695;53.330;9.876;2023-02-14T13:12:14;24.80;;;14.73;;
7308;SDS011;3695;53.330;9.876;2023-02-14T13:14:55;25.33;;;14.57;;
7308;SDS011;3695;53.330;9.876;2023-02-14T13:17:32;23.83;;;14.27;;
7308;SDS011;3695;53.330;9.876;2023-02-14T13:20:11;24.90;;;13.67;;
7308;SDS011;3695;53.330;9.876;2023-02-14T13:22:56;25.67;;;14.67;;
7308;SDS011;3695;53.330;9.876;2023-02-14T13:25:29;26.37;;;14.73;;
7308;SDS011;3695;53.330;9.876;2023-02-14T13:28:01;21.40;;;13.17;;
7308;SDS011;3695;53.330;9.876;2023-02-14T13:30:30;24.27;;;13.87;;
7308;SDS011;3695;53.330;9.876;2023-02-14T13:33:01;23.30;;;14.33;;
7308;SDS011;3695;53.330;9.876;2023-02-14T13:35:31;26.50;;;14.33;;
7308;SDS011;3695;53.330;9.876;2023-02-14T13:37:59;23.20;;;13.63;;
7308;SDS011;3695;53.330;9.876;2023-02-14T13:40:30;25.30;;;14.47;;
7308;SDS011;3695;53.330;9.876;2023-02-14T13:42:57;26.13;;;13.83;;
7308;SDS011;3695;53.330;9.876;2023-02-14T13:48:18;24.87;;;13.97;;
7308;SDS011;3695;53.330;9.876;2023-02-14T13:50:51;24.17;;;13.77;;
7308;SDS011;3695;53.330;9.876;2023-02-14T13:53:32;22.77;;;13.17;;
7308;SDS011;3695;53.330;9.876;2023-02-14T13:56:28;25.37;;;14.17;;
7308;SDS011;3695;53.330;9.876;2023-02-14T13:58:57;39.63;;;21.23;;
7308;SDS011;3695;53.330;9.876;2023-02-14T14:01:29;74.97;;;39.03;;
7308;SDS011;3695;53.330;9.876;2023-02-14T14:03:58;26.73;;;15.43;;
7308;SDS011;3695;53.330;9.876;2023-02-14T14:06:26;41.50;;;25.57;;
7308;SDS011;3695;53.330;9.876;2023-02-14T14:08:53;26.00;;;15.33;;
7308;SDS011;3695;53.330;9.876;2023-02-14T14:14:32;25.77;;;15.20;;
7308;SDS011;3695;53.330;9.876;2023-02-14T14:17:00;21.77;;;13.40;;
7308;SDS011;3695;53.330;9.876;2023-02-14T14:19:35;22.40;;;12.47;;
7308;SDS011;3695;53.330;9.876;2023-02-14T14:22:03;24.30;;;13.93;;
7308;SDS011;3695;53.330;9.876;2023-02-14T14:24:32;23.97;;;13.87;;
7308;SDS011;3695;53.330;9.876;2023-02-14T14:27:02;25.63;;;14.43;;
7308;SDS011;3695;53.330;9.876;2023-02-14T14:29:32;46.73;;;28.43;;
7308;SDS011;3695;53.330;9.876;2023-02-14T14:32:06;30.67;;;18.33;;
7308;SDS011;3695;53.330;9.876;2023-02-14T14:34:33;38.23;;;21.23;;
7308;SDS011;3695;53.330;9.876;2023-02-14T14:37:00;109.67;;;58.80;;
7308;SDS011;3695;53.330;9.876;2023-02-14T14:39:28;23.50;;;14.33;;
7308;SDS011;3695;53.330;9.876;2023-02-14T14:42:05;23.10;;;14.97;;
7308;SDS011;3695;53.330;9.876;2023-02-14T14:44:33;26.97;;;16.47;;
7308;SDS011;3695;53.330;9.876;2023-02-14T14:47:01;24.27;;;15.13;;
7308;SDS011;3695;53.330;9.876;2023-02-14T14:49:27;24.80;;;16.43;;
7308;SDS011;3695;53.330;9.876;2023-02-14T14:51:54;22.23;;;14.70;;
7308;SDS011;3695;53.330;9.876;2023-02-14T14:54:21;21.83;;;14.93;;
7308;SDS011;3695;53.330;9.876;2023-02-14T14:56:52;23.83;;;15.43;;
7308;SDS011;3695;53.330;9.876;2023-02-14T14:59:27;21.83;;;13.93;;
7308;SDS011;3695;53.330;9.876;2023-02-14T15:01:55;19.47;;;13.83;;
7308;SDS011;3695;53.330;9.876;2023-02-14T15:04:24;24.87;;;14.30;;
7308;SDS011;3695;53.330;9.876;2023-02-14T15:06:53;20.23;;;14.47;;
7308;SDS011;3695;53.330;9.876;2023-02-14T15:09:21;23.17;;;14.30;;
7308;SDS011;3695;53.330;9.876;2023-02-14T15:11:49;23.53;;;15.00;;
7308;SDS011;3695;53.330;9.876;2023-02-14T15:14:37;24.37;;;15.03;;
7308;SDS011;3695;53.330;9.876;2023-02-14T15:17:10;24.90;;;15.50;;
7308;SDS011;3695;53.330;9.876;2023-02-14T15:19:42;23.30;;;14.67;;